Mars — XPC8385 — position and weather

sailwx.info

Track history (hours):
 
Tides and Currents Weather Stations Pressure Air Temp Water Temp Dewpoint Dewpoint Depression Visibility Wind Speed Wind Dir Waves Ship Positions

Mars

Last reported at 2016-Jul-23 20:32 UTC. Time now 2016-Jul-23 21:13 UTC.
Position N 55°17' E 014°48'.

Length 14 m; draft 1.7 m.

Type: Pilot. MMSI: 219001058.

Date/timePositionNaut miles runAvg speedWind from/ knotsBaromVisibWave heightAir tempDewpointWater temp
2016-Jul-23 20:32N 55°17' E 014°48'0 0.0
2016-Jul-23 19:14N 55°17' E 014°48'0 0.0
2016-Jul-23 18:33N 55°17' E 014°48'0 0.0
2016-Jul-23 17:33N 55°17' E 014°48'0 0.0
2016-Jul-23 16:28N 55°17' E 014°48'0 0.0
2016-Jul-23 15:33N 55°17' E 014°48'0 0.0
2016-Jul-23 14:31N 55°17' E 014°48'0 0.0
2016-Jul-23 13:31N 55°17' E 014°48'0 0.0
2016-Jul-23 12:19N 55°17' E 014°48'0 0.0
2016-Jul-23 11:25N 55°17' E 014°48'0 0.0
2016-Jul-23 10:31N 55°17' E 014°48'0 0.0
2016-Jul-23 09:19N 55°17' E 014°48'0 0.0
2016-Jul-23 08:25N 55°17' E 014°48'0 0.0
2016-Jul-23 07:31N 55°17' E 014°48'0 0.0
2016-Jul-23 04:30N 55°17' E 014°48'0 0.0
2016-Jul-23 03:30N 55°17' E 014°48'0 0.0
2016-Jul-23 02:30N 55°17' E 014°48'0 0.0
2016-Jul-23 01:24N 55°17' E 014°48'0 0.0
2016-Jul-23 00:12N 55°17' E 014°48'0 0.0
2016-Jul-22 23:30N 55°17' E 014°48'0 0.0
2016-Jul-22 22:24N 55°17' E 014°48'0 0.0
2016-Jul-22 21:30N 55°17' E 014°48'0 0.0
2016-Jul-22 20:30N 55°17' E 014°48'0 0.0
2016-Jul-22 19:06N 55°17' E 014°48'0 0.0
2016-Jul-22 18:30N 55°17' E 014°48'0 0.0
2016-Jul-22 17:18N 55°17' E 014°48'0 0.0
2016-Jul-22 15:06N 55°17' E 014°48'0 0.0
2016-Jul-22 14:30N 55°17' E 014°48'0 0.0
2016-Jul-22 13:18N 55°17' E 014°48'0 0.0
2016-Jul-22 12:24N 55°17' E 014°48'0 0.0
2016-Jul-22 11:30N 55°17' E 014°48'0 0.0
2016-Jul-22 10:24N 55°17' E 014°48'0 0.0
2016-Jul-22 09:30N 55°17' E 014°48'0 0.0
2016-Jul-22 08:30N 55°17' E 014°48'0 0.0
2016-Jul-22 07:24N 55°17' E 014°48'0 0.0
2016-Jul-22 04:30N 55°17' E 014°48'0 0.0
2016-Jul-22 03:30N 55°17' E 014°48'0 0.0
2016-Jul-22 02:30N 55°17' E 014°48'0 0.0
2016-Jul-22 01:09N 55°17' E 014°48'0 0.0
2016-Jul-22 00:33N 55°17' E 014°48'2 2.0
2016-Jul-21 23:33N 55°18' E 014°50'2 1.8
2016-Jul-21 22:28N 55°17' E 014°48'0 0.0
2016-Jul-21 21:28N 55°17' E 014°48'0 0.0
2016-Jul-21 20:28N 55°17' E 014°48'0 0.0
2016-Jul-21 19:28N 55°17' E 014°48'0 0.0
2016-Jul-21 18:28N 55°17' E 014°48'0 0.0
2016-Jul-21 17:25N 55°17' E 014°48'0 0.0
2016-Jul-21 16:28N 55°17' E 014°48'0 0.0
2016-Jul-21 15:28N 55°17' E 014°48'0 0.0
2016-Jul-21 14:22N 55°17' E 014°48'0 0.0
2016-Jul-21 13:16N 55°17' E 014°48'0 0.0
2016-Jul-21 12:22N 55°17' E 014°48'0 0.0
2016-Jul-21 11:10N 55°17' E 014°48'0 0.0
2016-Jul-21 10:22N 55°17' E 014°48'0 0.0
2016-Jul-21 08:27N 55°17' E 014°48'1 1.2
2016-Jul-21 07:33N 55°18' E 014°47'1 1.0
2016-Jul-21 06:24N 55°17' E 014°48'0 0.0
2016-Jul-21 05:30N 55°17' E 014°48'0 0.0
2016-Jul-21 04:30N 55°17' E 014°48'0 0.0
2016-Jul-21 03:06N 55°17' E 014°48'0 0.0
2016-Jul-21 02:30N 55°17' E 014°48'0 0.0
2016-Jul-21 01:30N 55°17' E 014°48'0 0.0
2016-Jul-21 00:34N 55°17' E 014°48'0 0.0
2016-Jul-20 23:18N 55°17' E 014°48'0 0.0
2016-Jul-20 22:30N 55°17' E 014°48'0 0.0
2016-Jul-20 21:30N 55°17' E 014°48'0 0.0
2016-Jul-20 20:30N 55°17' E 014°48'0 0.0
2016-Jul-20 19:29N 55°17' E 014°48'0 0.0
2016-Jul-20 18:30N 55°17' E 014°48'0 0.0
2016-Jul-20 17:29N 55°17' E 014°48'0 0.0
2016-Jul-20 16:29N 55°17' E 014°48'0 0.0
2016-Jul-20 15:32N 55°17' E 014°48'0 0.0
2016-Jul-20 14:32N 55°17' E 014°48'0 0.0
2016-Jul-20 13:29N 55°17' E 014°48'0 0.0
2016-Jul-20 12:24N 55°17' E 014°48'0 0.0
2016-Jul-20 11:29N 55°17' E 014°48'0 0.0
2016-Jul-20 10:32N 55°17' E 014°48'0 0.0
2016-Jul-20 09:29N 55°17' E 014°48'4 4.0
2016-Jul-20 08:33N 55°18' E 014°54'4 3.3
2016-Jul-20 07:25N 55°17' E 014°48'0 0.0
2016-Jul-20 06:10N 55°17' E 014°48'0 0.0
2016-Jul-20 05:31N 55°17' E 014°48'0 0.0
2016-Jul-20 04:28N 55°17' E 014°48'0 0.0
2016-Jul-20 03:28N 55°17' E 014°48'0 0.0
2016-Jul-20 02:28N 55°17' E 014°48'0 0.0
2016-Jul-20 01:28N 55°17' E 014°48'0 0.0
2016-Jul-20 00:31N 55°17' E 014°48'0 0.0
2016-Jul-19 23:31N 55°17' E 014°48'0 0.0
2016-Jul-19 22:31N 55°17' E 014°48'0 0.0
2016-Jul-19 21:31N 55°17' E 014°48'0 0.0
2016-Jul-19 20:31N 55°17' E 014°48'0 0.0
2016-Jul-19 19:31N 55°17' E 014°48'0 0.0
2016-Jul-19 18:28N 55°17' E 014°48'0 0.0
2016-Jul-19 17:28N 55°17' E 014°48'1 0.9
2016-Jul-19 16:34N 55°17' E 014°49'1 0.8
2016-Jul-19 15:33N 55°17' E 014°48'2 1.5
2016-Jul-19 14:33N 55°18' E 014°47'2 1.5
2016-Jul-19 13:31N 55°17' E 014°48'0 0.0
2016-Jul-19 12:31N 55°17' E 014°48'0 0.0
2016-Jul-19 11:30N 55°17' E 014°48'0 0.0
2016-Jul-19 10:30N 55°17' E 014°48'0 0.0
2016-Jul-19 09:30N 55°17' E 014°48'0 0.0
2016-Jul-19 08:30N 55°17' E 014°48'0 0.0
2016-Jul-19 07:30N 55°17' E 014°48'0 0.0
2016-Jul-19 04:30N 55°17' E 014°48'0 0.0
2016-Jul-19 03:24N 55°17' E 014°48'0 0.0
2016-Jul-19 02:30N 55°17' E 014°48'0 0.0
2016-Jul-19 01:30N 55°17' E 014°48'0 0.0
2016-Jul-19 00:24N 55°17' E 014°48'0 0.0
2016-Jul-18 23:30N 55°17' E 014°48'0 0.0
2016-Jul-18 22:33N 55°17' E 014°48'0 0.0
2016-Jul-18 21:33N 55°17' E 014°48'0 0.0
2016-Jul-18 20:24N 55°17' E 014°48'0 0.0
2016-Jul-18 19:30N 55°17' E 014°48'0 0.0
2016-Jul-18 18:31N 55°17' E 014°48'0 0.0
2016-Jul-18 17:32N 55°17' E 014°48'0 0.0
2016-Jul-18 16:29N 55°17' E 014°48'0 0.0
2016-Jul-18 15:29N 55°17' E 014°48'0 0.0
2016-Jul-18 14:29N 55°17' E 014°48'0 0.0
2016-Jul-18 13:29N 55°17' E 014°48'0 0.0
2016-Jul-18 12:29N 55°17' E 014°48'0 0.0
2016-Jul-18 11:29N 55°17' E 014°48'0 0.0
2016-Jul-18 10:29N 55°17' E 014°48'0 0.0
2016-Jul-18 09:23N 55°17' E 014°48'0 0.0
2016-Jul-18 08:23N 55°17' E 014°48'0 0.0
2016-Jul-18 07:29N 55°17' E 014°48'0 0.0
2016-Jul-18 06:23N 55°17' E 014°48'0 0.0
2016-Jul-18 05:29N 55°17' E 014°48'0 0.0
2016-Jul-18 04:29N 55°17' E 014°48'0 0.0
2016-Jul-18 03:29N 55°17' E 014°48'0 0.0
2016-Jul-18 01:29N 55°17' E 014°48'0 0.0
2016-Jul-18 00:33N 55°17' E 014°48'0 0.0
2016-Jul-17 23:33N 55°17' E 014°48'0 0.0
2016-Jul-17 22:33N 55°17' E 014°48'0 0.0
2016-Jul-17 21:27N 55°17' E 014°48'0 0.0
2016-Jul-17 20:33N 55°17' E 014°48'0 0.0
2016-Jul-17 19:33N 55°17' E 014°48'0 0.0
2016-Jul-17 18:33N 55°17' E 014°48'0 0.0
2016-Jul-17 17:33N 55°17' E 014°48'0 0.0
2016-Jul-17 16:33N 55°17' E 014°48'0 0.0
2016-Jul-17 15:33N 55°17' E 014°48'0 0.0
2016-Jul-17 14:33N 55°17' E 014°48'0 0.0
2016-Jul-17 13:33N 55°17' E 014°48'0 0.0
2016-Jul-17 12:33N 55°17' E 014°48'0 0.0
2016-Jul-17 11:33N 55°17' E 014°48'0 0.0
2016-Jul-17 10:33N 55°17' E 014°48'0 0.0
2016-Jul-17 09:33N 55°17' E 014°48'0 0.0
2016-Jul-17 08:33N 55°17' E 014°48'0 0.0
2016-Jul-17 07:33N 55°17' E 014°48'0 0.0
2016-Jul-17 06:33N 55°17' E 014°48'0 0.0
2016-Jul-17 04:33N 55°17' E 014°48'0 0.0
2016-Jul-17 03:33N 55°17' E 014°48'0 0.0
2016-Jul-17 02:33N 55°17' E 014°48'0 0.0
2016-Jul-17 01:33N 55°17' E 014°48'0 0.0
2016-Jul-17 00:33N 55°17' E 014°48'0 0.0
2016-Jul-16 23:33N 55°17' E 014°48'0 0.0
2016-Jul-16 22:33N 55°17' E 014°48'0 0.0
2016-Jul-16 21:33N 55°17' E 014°48'0 0.0
2016-Jul-16 20:33N 55°17' E 014°48'0 0.0
2016-Jul-16 19:33N 55°17' E 014°48'0 0.0
2016-Jul-16 18:33N 55°17' E 014°48'0 0.0
2016-Jul-16 17:33N 55°17' E 014°48'0 0.0
2016-Jul-16 16:33N 55°17' E 014°48'3 2.8
2016-Jul-16 15:33N 55°19' E 014°51'3 2.8
2016-Jul-16 14:33N 55°17' E 014°48'0 0.0
2016-Jul-16 13:33N 55°17' E 014°48'0 0.0
2016-Jul-16 12:33N 55°17' E 014°48'0 0.0
2016-Jul-16 11:33N 55°17' E 014°48'0 0.0
2016-Jul-16 10:33N 55°17' E 014°48'0 0.0
2016-Jul-16 09:33N 55°17' E 014°48'0 0.1
2016-Jul-16 08:33N 55°17' E 014°48'0 0.1
2016-Jul-16 07:17N 55°17' E 014°48'0 0.0
2016-Jul-16 04:32N 55°17' E 014°48'0 0.0
2016-Jul-16 03:34N 55°17' E 014°48'0 0.0
2016-Jul-16 02:33N 55°17' E 014°48'0 0.0
2016-Jul-16 01:33N 55°17' E 014°48'0 0.0
2016-Jul-16 00:33N 55°17' E 014°48'0 0.0
2016-Jul-15 23:33N 55°17' E 014°48'0 0.0
2016-Jul-15 22:33N 55°17' E 014°48'0 0.0
2016-Jul-15 21:33N 55°17' E 014°48'0 0.0
2016-Jul-15 20:33N 55°17' E 014°48'0 0.0
2016-Jul-15 19:33N 55°17' E 014°48'0 0.0
2016-Jul-15 18:33N 55°17' E 014°48'0 0.0
2016-Jul-15 17:33N 55°17' E 014°48'0 0.0
2016-Jul-15 16:33N 55°17' E 014°48'0 0.0
2016-Jul-15 15:33N 55°17' E 014°48'0 0.0
2016-Jul-15 14:32N 55°17' E 014°48'0 0.0
2016-Jul-15 13:33N 55°17' E 014°48'0 0.0
2016-Jul-15 12:33N 55°17' E 014°48'0 0.0
2016-Jul-15 11:30N 55°17' E 014°48'0 0.0
2016-Jul-15 10:31N 55°17' E 014°48'0 0.0
2016-Jul-15 09:32N 55°17' E 014°48'0 0.0
2016-Jul-15 08:33N 55°17' E 014°48'1 1.2
2016-Jul-15 07:34N 55°17' E 014°50'1 0.6
2016-Jul-15 05:30N 55°17' E 014°48'0 0.0
2016-Jul-15 04:24N 55°17' E 014°48'0 0.0
2016-Jul-15 03:24N 55°17' E 014°48'0 0.0
2016-Jul-15 02:33N 55°17' E 014°48'0 0.0
2016-Jul-15 01:30N 55°17' E 014°48'0 0.0
2016-Jul-15 00:21N 55°17' E 014°48'0 0.0
2016-Jul-14 23:27N 55°17' E 014°48'0 0.0
2016-Jul-14 22:24N 55°17' E 014°48'0 0.0
2016-Jul-14 21:30N 55°17' E 014°48'0 0.0
2016-Jul-14 20:30N 55°17' E 014°48'0 0.0
2016-Jul-14 19:33N 55°17' E 014°48'0 0.0
2016-Jul-14 18:27N 55°17' E 014°48'0 0.1
2016-Jul-14 16:34N 55°17' E 014°48'0 0.2
2016-Jul-14 15:28N 55°17' E 014°48'2 1.3
2016-Jul-14 13:33N 55°18' E 014°51'2 1.2
2016-Jul-14 11:30N 55°17' E 014°48'0 0.0
2016-Jul-14 10:33N 55°17' E 014°48'0 0.0
2016-Jul-14 09:33N 55°17' E 014°48'0 0.0
2016-Jul-14 07:33N 55°17' E 014°48'0 0.0
2016-Jul-14 06:33N 55°17' E 014°48'0 0.0
2016-Jul-14 05:33N 55°17' E 014°48'0 0.0
2016-Jul-14 04:33N 55°17' E 014°48'0 0.0
2016-Jul-14 03:09N 55°17' E 014°48'0 0.0
2016-Jul-14 02:27N 55°17' E 014°48'0 0.0
2016-Jul-14 01:21N 55°17' E 014°48'0 0.0
2016-Jul-14 00:32N 55°17' E 014°48'0 0.0
2016-Jul-13 23:08N 55°17' E 014°48'0 0.0
2016-Jul-13 22:27N 55°17' E 014°48'0 0.0
2016-Jul-13 21:14N 55°17' E 014°48'  
Track history (hours):
 
Tides and Currents Weather Stations Pressure Air Temp Water Temp Dewpoint Dewpoint Depression Visibility Wind Speed Wind Dir Waves Ship Positions

Mars

Last reported at 2016-Jul-23 20:32 UTC. Time now 2016-Jul-23 21:14 UTC.
Position N 55°17' E 014°48'.

Length 14 m; draft 1.7 m.

Type: Pilot. MMSI: 219001058.

Date/timePositionNaut miles runAvg speedWind from/ knotsBaromVisibWave heightAir tempDewpointWater temp
2016-Jul-23 20:32N 55°17' E 014°48'0 0.0
2016-Jul-23 19:14N 55°17' E 014°48'0 0.0
2016-Jul-23 18:33N 55°17' E 014°48'0 0.0
2016-Jul-23 17:33N 55°17' E 014°48'0 0.0
2016-Jul-23 16:28N 55°17' E 014°48'0 0.0
2016-Jul-23 15:33N 55°17' E 014°48'0 0.0
2016-Jul-23 14:31N 55°17' E 014°48'0 0.0
2016-Jul-23 13:31N 55°17' E 014°48'0 0.0
2016-Jul-23 12:19N 55°17' E 014°48'0 0.0
2016-Jul-23 11:25N 55°17' E 014°48'0 0.0
2016-Jul-23 10:31N 55°17' E 014°48'0 0.0
2016-Jul-23 09:19N 55°17' E 014°48'0 0.0
2016-Jul-23 08:25N 55°17' E 014°48'0 0.0
2016-Jul-23 07:31N 55°17' E 014°48'0 0.0
2016-Jul-23 04:30N 55°17' E 014°48'0 0.0
2016-Jul-23 03:30N 55°17' E 014°48'0 0.0
2016-Jul-23 02:30N 55°17' E 014°48'0 0.0
2016-Jul-23 01:24N 55°17' E 014°48'0 0.0
2016-Jul-23 00:12N 55°17' E 014°48'0 0.0
2016-Jul-22 23:30N 55°17' E 014°48'0 0.0
2016-Jul-22 22:24N 55°17' E 014°48'0 0.0
2016-Jul-22 21:30N 55°17' E 014°48'0 0.0
2016-Jul-22 20:30N 55°17' E 014°48'0 0.0
2016-Jul-22 19:06N 55°17' E 014°48'0 0.0
2016-Jul-22 18:30N 55°17' E 014°48'0 0.0
2016-Jul-22 17:18N 55°17' E 014°48'0 0.0
2016-Jul-22 15:06N 55°17' E 014°48'0 0.0
2016-Jul-22 14:30N 55°17' E 014°48'0 0.0
2016-Jul-22 13:18N 55°17' E 014°48'0 0.0
2016-Jul-22 12:24N 55°17' E 014°48'0 0.0
2016-Jul-22 11:30N 55°17' E 014°48'0 0.0
2016-Jul-22 10:24N 55°17' E 014°48'0 0.0
2016-Jul-22 09:30N 55°17' E 014°48'0 0.0
2016-Jul-22 08:30N 55°17' E 014°48'0 0.0
2016-Jul-22 07:24N 55°17' E 014°48'0 0.0
2016-Jul-22 04:30N 55°17' E 014°48'0 0.0
2016-Jul-22 03:30N 55°17' E 014°48'0 0.0
2016-Jul-22 02:30N 55°17' E 014°48'0 0.0
2016-Jul-22 01:09N 55°17' E 014°48'0 0.0
2016-Jul-22 00:33N 55°17' E 014°48'2 2.0
2016-Jul-21 23:33N 55°18' E 014°50'2 1.8
2016-Jul-21 22:28N 55°17' E 014°48'0 0.0
2016-Jul-21 21:28N 55°17' E 014°48'0 0.0
2016-Jul-21 20:28N 55°17' E 014°48'0 0.0
2016-Jul-21 19:28N 55°17' E 014°48'0 0.0
2016-Jul-21 18:28N 55°17' E 014°48'0 0.0
2016-Jul-21 17:25N 55°17' E 014°48'0 0.0
2016-Jul-21 16:28N 55°17' E 014°48'0 0.0
2016-Jul-21 15:28N 55°17' E 014°48'0 0.0
2016-Jul-21 14:22N 55°17' E 014°48'0 0.0
2016-Jul-21 13:16N 55°17' E 014°48'0 0.0
2016-Jul-21 12:22N 55°17' E 014°48'0 0.0
2016-Jul-21 11:10N 55°17' E 014°48'0 0.0
2016-Jul-21 10:22N 55°17' E 014°48'0 0.0
2016-Jul-21 08:27N 55°17' E 014°48'1 1.2
2016-Jul-21 07:33N 55°18' E 014°47'1 1.0
2016-Jul-21 06:24N 55°17' E 014°48'0 0.0
2016-Jul-21 05:30N 55°17' E 014°48'0 0.0
2016-Jul-21 04:30N 55°17' E 014°48'0 0.0
2016-Jul-21 03:06N 55°17' E 014°48'0 0.0
2016-Jul-21 02:30N 55°17' E 014°48'0 0.0
2016-Jul-21 01:30N 55°17' E 014°48'0 0.0
2016-Jul-21 00:34N 55°17' E 014°48'0 0.0
2016-Jul-20 23:18N 55°17' E 014°48'0 0.0
2016-Jul-20 22:30N 55°17' E 014°48'0 0.0
2016-Jul-20 21:30N 55°17' E 014°48'0 0.0
2016-Jul-20 20:30N 55°17' E 014°48'0 0.0
2016-Jul-20 19:29N 55°17' E 014°48'0 0.0
2016-Jul-20 18:30N 55°17' E 014°48'0 0.0
2016-Jul-20 17:29N 55°17' E 014°48'0 0.0
2016-Jul-20 16:29N 55°17' E 014°48'0 0.0
2016-Jul-20 15:32N 55°17' E 014°48'0 0.0
2016-Jul-20 14:32N 55°17' E 014°48'0 0.0
2016-Jul-20 13:29N 55°17' E 014°48'0 0.0
2016-Jul-20 12:24N 55°17' E 014°48'0 0.0
2016-Jul-20 11:29N 55°17' E 014°48'0 0.0
2016-Jul-20 10:32N 55°17' E 014°48'0 0.0
2016-Jul-20 09:29N 55°17' E 014°48'4 4.0
2016-Jul-20 08:33N 55°18' E 014°54'4 3.3
2016-Jul-20 07:25N 55°17' E 014°48'0 0.0
2016-Jul-20 06:10N 55°17' E 014°48'0 0.0
2016-Jul-20 05:31N 55°17' E 014°48'0 0.0
2016-Jul-20 04:28N 55°17' E 014°48'0 0.0
2016-Jul-20 03:28N 55°17' E 014°48'0 0.0
2016-Jul-20 02:28N 55°17' E 014°48'0 0.0
2016-Jul-20 01:28N 55°17' E 014°48'0 0.0
2016-Jul-20 00:31N 55°17' E 014°48'0 0.0
2016-Jul-19 23:31N 55°17' E 014°48'0 0.0
2016-Jul-19 22:31N 55°17' E 014°48'0 0.0
2016-Jul-19 21:31N 55°17' E 014°48'0 0.0
2016-Jul-19 20:31N 55°17' E 014°48'0 0.0
2016-Jul-19 19:31N 55°17' E 014°48'0 0.0
2016-Jul-19 18:28N 55°17' E 014°48'0 0.0
2016-Jul-19 17:28N 55°17' E 014°48'1 0.9
2016-Jul-19 16:34N 55°17' E 014°49'1 0.8
2016-Jul-19 15:33N 55°17' E 014°48'2 1.5
2016-Jul-19 14:33N 55°18' E 014°47'2 1.5
2016-Jul-19 13:31N 55°17' E 014°48'0 0.0
2016-Jul-19 12:31N 55°17' E 014°48'0 0.0
2016-Jul-19 11:30N 55°17' E 014°48'0 0.0
2016-Jul-19 10:30N 55°17' E 014°48'0 0.0
2016-Jul-19 09:30N 55°17' E 014°48'0 0.0
2016-Jul-19 08:30N 55°17' E 014°48'0 0.0
2016-Jul-19 07:30N 55°17' E 014°48'0 0.0
2016-Jul-19 04:30N 55°17' E 014°48'0 0.0
2016-Jul-19 03:24N 55°17' E 014°48'0 0.0
2016-Jul-19 02:30N 55°17' E 014°48'0 0.0
2016-Jul-19 01:30N 55°17' E 014°48'0 0.0
2016-Jul-19 00:24N 55°17' E 014°48'0 0.0
2016-Jul-18 23:30N 55°17' E 014°48'0 0.0
2016-Jul-18 22:33N 55°17' E 014°48'0 0.0
2016-Jul-18 21:33N 55°17' E 014°48'0 0.0
2016-Jul-18 20:24N 55°17' E 014°48'0 0.0
2016-Jul-18 19:30N 55°17' E 014°48'0 0.0
2016-Jul-18 18:31N 55°17' E 014°48'0 0.0
2016-Jul-18 17:32N 55°17' E 014°48'0 0.0
2016-Jul-18 16:29N 55°17' E 014°48'0 0.0
2016-Jul-18 15:29N 55°17' E 014°48'0 0.0
2016-Jul-18 14:29N 55°17' E 014°48'0 0.0
2016-Jul-18 13:29N 55°17' E 014°48'0 0.0
2016-Jul-18 12:29N 55°17' E 014°48'0 0.0
2016-Jul-18 11:29N 55°17' E 014°48'0 0.0
2016-Jul-18 10:29N 55°17' E 014°48'0 0.0
2016-Jul-18 09:23N 55°17' E 014°48'0 0.0
2016-Jul-18 08:23N 55°17' E 014°48'0 0.0
2016-Jul-18 07:29N 55°17' E 014°48'0 0.0
2016-Jul-18 06:23N 55°17' E 014°48'0 0.0
2016-Jul-18 05:29N 55°17' E 014°48'0 0.0
2016-Jul-18 04:29N 55°17' E 014°48'0 0.0
2016-Jul-18 03:29N 55°17' E 014°48'0 0.0
2016-Jul-18 01:29N 55°17' E 014°48'0 0.0
2016-Jul-18 00:33N 55°17' E 014°48'0 0.0
2016-Jul-17 23:33N 55°17' E 014°48'0 0.0
2016-Jul-17 22:33N 55°17' E 014°48'0 0.0
2016-Jul-17 21:27N 55°17' E 014°48'0 0.0
2016-Jul-17 20:33N 55°17' E 014°48'0 0.0
2016-Jul-17 19:33N 55°17' E 014°48'0 0.0
2016-Jul-17 18:33N 55°17' E 014°48'0 0.0
2016-Jul-17 17:33N 55°17' E 014°48'0 0.0
2016-Jul-17 16:33N 55°17' E 014°48'0 0.0
2016-Jul-17 15:33N 55°17' E 014°48'0 0.0
2016-Jul-17 14:33N 55°17' E 014°48'0 0.0
2016-Jul-17 13:33N 55°17' E 014°48'0 0.0
2016-Jul-17 12:33N 55°17' E 014°48'0 0.0
2016-Jul-17 11:33N 55°17' E 014°48'0 0.0
2016-Jul-17 10:33N 55°17' E 014°48'0 0.0
2016-Jul-17 09:33N 55°17' E 014°48'0 0.0
2016-Jul-17 08:33N 55°17' E 014°48'0 0.0
2016-Jul-17 07:33N 55°17' E 014°48'0 0.0
2016-Jul-17 06:33N 55°17' E 014°48'0 0.0
2016-Jul-17 04:33N 55°17' E 014°48'0 0.0
2016-Jul-17 03:33N 55°17' E 014°48'0 0.0
2016-Jul-17 02:33N 55°17' E 014°48'0 0.0
2016-Jul-17 01:33N 55°17' E 014°48'0 0.0
2016-Jul-17 00:33N 55°17' E 014°48'0 0.0
2016-Jul-16 23:33N 55°17' E 014°48'0 0.0
2016-Jul-16 22:33N 55°17' E 014°48'0 0.0
2016-Jul-16 21:33N 55°17' E 014°48'0 0.0
2016-Jul-16 20:33N 55°17' E 014°48'0 0.0
2016-Jul-16 19:33N 55°17' E 014°48'0 0.0
2016-Jul-16 18:33N 55°17' E 014°48'0 0.0
2016-Jul-16 17:33N 55°17' E 014°48'0 0.0
2016-Jul-16 16:33N 55°17' E 014°48'3 2.8
2016-Jul-16 15:33N 55°19' E 014°51'3 2.8
2016-Jul-16 14:33N 55°17' E 014°48'0 0.0
2016-Jul-16 13:33N 55°17' E 014°48'0 0.0
2016-Jul-16 12:33N 55°17' E 014°48'0 0.0
2016-Jul-16 11:33N 55°17' E 014°48'0 0.0
2016-Jul-16 10:33N 55°17' E 014°48'0 0.0
2016-Jul-16 09:33N 55°17' E 014°48'0 0.1
2016-Jul-16 08:33N 55°17' E 014°48'0 0.1
2016-Jul-16 07:17N 55°17' E 014°48'0 0.0
2016-Jul-16 04:32N 55°17' E 014°48'0 0.0
2016-Jul-16 03:34N 55°17' E 014°48'0 0.0
2016-Jul-16 02:33N 55°17' E 014°48'0 0.0
2016-Jul-16 01:33N 55°17' E 014°48'0 0.0
2016-Jul-16 00:33N 55°17' E 014°48'0 0.0
2016-Jul-15 23:33N 55°17' E 014°48'0 0.0
2016-Jul-15 22:33N 55°17' E 014°48'0 0.0
2016-Jul-15 21:33N 55°17' E 014°48'0 0.0
2016-Jul-15 20:33N 55°17' E 014°48'0 0.0
2016-Jul-15 19:33N 55°17' E 014°48'0 0.0
2016-Jul-15 18:33N 55°17' E 014°48'0 0.0
2016-Jul-15 17:33N 55°17' E 014°48'0 0.0
2016-Jul-15 16:33N 55°17' E 014°48'0 0.0
2016-Jul-15 15:33N 55°17' E 014°48'0 0.0
2016-Jul-15 14:32N 55°17' E 014°48'0 0.0
2016-Jul-15 13:33N 55°17' E 014°48'0 0.0
2016-Jul-15 12:33N 55°17' E 014°48'0 0.0
2016-Jul-15 11:30N 55°17' E 014°48'0 0.0
2016-Jul-15 10:31N 55°17' E 014°48'0 0.0
2016-Jul-15 09:32N 55°17' E 014°48'0 0.0
2016-Jul-15 08:33N 55°17' E 014°48'1 1.2
2016-Jul-15 07:34N 55°17' E 014°50'1 0.6
2016-Jul-15 05:30N 55°17' E 014°48'0 0.0
2016-Jul-15 04:24N 55°17' E 014°48'0 0.0
2016-Jul-15 03:24N 55°17' E 014°48'0 0.0
2016-Jul-15 02:33N 55°17' E 014°48'0 0.0
2016-Jul-15 01:30N 55°17' E 014°48'0 0.0
2016-Jul-15 00:21N 55°17' E 014°48'0 0.0
2016-Jul-14 23:27N 55°17' E 014°48'0 0.0
2016-Jul-14 22:24N 55°17' E 014°48'0 0.0
2016-Jul-14 21:30N 55°17' E 014°48'0 0.0
2016-Jul-14 20:30N 55°17' E 014°48'0 0.0
2016-Jul-14 19:33N 55°17' E 014°48'0 0.0
2016-Jul-14 18:27N 55°17' E 014°48'0 0.1
2016-Jul-14 16:34N 55°17' E 014°48'0 0.2
2016-Jul-14 15:28N 55°17' E 014°48'2 1.3
2016-Jul-14 13:33N 55°18' E 014°51'2 1.2
2016-Jul-14 11:30N 55°17' E 014°48'0 0.0
2016-Jul-14 10:33N 55°17' E 014°48'0 0.0
2016-Jul-14 09:33N 55°17' E 014°48'0 0.0
2016-Jul-14 07:33N 55°17' E 014°48'0 0.0
2016-Jul-14 06:33N 55°17' E 014°48'0 0.0
2016-Jul-14 05:33N 55°17' E 014°48'0 0.0
2016-Jul-14 04:33N 55°17' E 014°48'0 0.0
2016-Jul-14 03:09N 55°17' E 014°48'0 0.0
2016-Jul-14 02:27N 55°17' E 014°48'0 0.0
2016-Jul-14 01:21N 55°17' E 014°48'0 0.0
2016-Jul-14 00:32N 55°17' E 014°48'0 0.0
2016-Jul-13 23:08N 55°17' E 014°48'0 0.0
2016-Jul-13 22:27N 55°17' E 014°48'0 0.0
2016-Jul-13 21:14N 55°17' E 014°48'  

Dump ship's entire track history